Latest Coastal Weather Observations for Barrow Island

IDW60701

Issued at 5:32 pm WST Wednesday 27 July 2016 (issued every 10 minutes, with the page automatically refreshed every 10 minutes)

About coastal observations | Map of coastal stations | Coastal observations for WA | Marine services | Other Formats
Station Details ID: 005094 Name: BARROW ISLAND AIRPORT Lat: -20.87 Lon: 115.41 Height: 6.4 m
Data from the previous 72 hours. | See also: Recent months at Barrow Island
Date/Time
WST
Temp
°C
Wind Pressure Rain since
9am
mm
Weather Cloud Vis
km
Sea
Height
m
Swell
Dir  Spd
kts
Gust
kts
hPa Trend Height
m
Period
s
Dir
27/05:30pm 23.4 NE 9 11 1016.2 - 0.0 - - - - - - -
27/05:00pm 23.6 NE 11 13 1016.2 - 0.0 - - - - - - -
27/04:30pm 23.8 NE 11 13 1016.2 - 0.0 - - - - - - -
27/04:00pm 23.6 NE 9 11 1016.1 - 0.0 - - - - - - -
27/03:30pm 23.8 NE 10 12 1016.2 - 0.0 - - - - - - -
27/03:00pm 24.0 NE 12 15 1016.2 - 0.0 - - - - - - -
27/02:30pm 24.2 NE 13 15 1016.1 - 0.0 - - - - - - -
27/02:00pm 24.0 NE 12 13 1016.4 - 0.0 - - - - - - -
27/01:30pm 23.8 ENE 11 13 1017.0 - 0.0 - - - - - - -
27/01:00pm 23.4 ENE 12 15 1017.3 - 0.0 - - - - - - -
27/12:30pm 23.3 ENE 14 16 1017.7 - 0.0 - - - - - - -
27/12:00pm 23.1 ENE 16 19 1018.2 - 0.0 - - - - - - -
27/11:30am 22.6 ENE 19 21 1018.4 - 0.0 - - - - - - -
27/11:00am 22.3 ENE 20 23 1018.8 - 0.0 - - - - - - -
27/10:30am 22.1 E 22 26 1019.2 - 0.0 - - - - - - -
27/10:00am 21.9 E 23 26 1019.5 - 0.0 - - - - - - -
27/09:30am 21.7 E 22 27 1019.5 - 0.0 - - - - - - -
27/09:00am 21.6 E 21 27 1019.3 - 0.0 - - - - - - -
27/08:30am 21.4 E 20 23 1019.1 - 0.0 - - - - - - -
27/08:00am 21.2 E 19 22 1019.0 - 0.0 - - - - - - -
27/07:30am 21.1 E 19 23 1018.4 - 0.0 - - - - - - -
27/07:00am 20.8 E 18 22 1018.3 - 0.0 - - - - - - -
27/06:30am 21.0 E 19 22 1018.1 - 0.0 - - - - - - -
27/06:00am 21.0 E 18 22 1017.9 - 0.0 - - - - - - -
27/05:30am 21.2 E 19 22 1017.7 - 0.0 - - - - - - -
27/05:00am 21.4 E 19 23 1017.5 - 0.0 - - - - - - -
27/04:30am 21.5 E 17 22 1017.5 - 0.0 - - - - - - -
27/04:00am 21.2 E 12 15 1017.5 - 0.0 - - - - - - -
27/03:30am 21.4 ESE 12 14 1017.5 - 0.0 - - - - - - -
27/03:00am 21.7 ESE 12 17 1017.6 - 0.0 - - - - - - -
27/02:30am 21.9 ESE 12 14 1017.8 - 0.0 - - - - - - -
27/02:00am 21.9 E 12 15 1017.8 - 0.0 - - - - - - -
27/01:30am 21.8 E 11 12 1017.8 - 0.0 - - - - - - -
27/01:00am 20.7 E 7 9 1017.8 - 0.0 - - - - - - -
27/12:30am 21.1 E 7 9 1017.9 - 0.0 - - - - - - -
27/12:00am 20.0 ENE 4 7 1018.2 - 0.0 - - - - - - -
 
Date/Time
WST
Temp
°C
Wind Pressure Rain since
9am
mm
Weather Cloud Vis
km
Sea
Height
m
Swell
Dir  Spd
kts
Gust
kts
hPa Trend Height
m
Period
s
Dir
26/11:30pm 20.3 E 4 5 1018.2 - 0.0 - - - - - - -
26/11:00pm 20.6 NE 3 3 1018.1 - 0.0 - - - - - - -
26/10:30pm 19.2 N 3 5 1018.3 - 0.0 - - - - - - -
26/10:00pm 19.3 N 4 5 1018.2 - 0.0 - - - - - - -
26/09:30pm 20.2 CALM 0 0 1018.5 - 0.0 - - - - - - -
26/09:00pm 20.8 CALM 0 0 1018.5 - 0.0 - - - - - - -
26/08:30pm 20.0 CALM 0 0 1018.5 - 0.0 - - - - - - -
26/08:00pm 20.0 SW 2 4 1018.1 - 0.0 - - - - - - -
26/07:30pm 20.3 NNW 6 7 1017.9 - 0.0 - - - - - - -
26/07:00pm 20.8 NW 5 5 1017.7 - 0.0 - - - - - - -
26/06:30pm 21.9 W 4 6 1017.3 - 0.0 - - - - - - -
26/06:00pm 22.8 CALM 0 0 1016.9 - 0.0 - - - - - - -
26/05:30pm 23.7 NE 4 5 1016.6 - 0.0 - - - - - - -
26/05:00pm 24.0 NNE 5 6 1016.5 - 0.0 - - - - - - -
26/04:30pm 23.9 NE 5 6 1016.6 - 0.0 - - - - - - -
26/04:00pm 24.1 ENE 6 7 1016.4 - 0.0 - - - - - - -
26/03:30pm 24.2 NE 8 10 1016.2 - 0.0 - - - - - - -
26/03:00pm 24.2 NE 10 12 1016.1 - 0.0 - - - - - - -
26/02:30pm 24.4 NE 10 11 1016.2 - 0.0 - - - - - - -
26/02:00pm 24.1 NE 10 11 1016.6 - 0.0 - - - - - - -
26/01:30pm 23.9 ENE 10 11 1017.1 - 0.0 - - - - - - -
26/01:00pm 23.8 ENE 12 13 1017.4 - 0.0 - - - - - - -
26/12:30pm 23.9 NE 13 16 1017.7 - 0.0 - - - - - - -
26/12:00pm 23.7 ENE 12 14 1018.2 - 0.0 - - - - - - -
26/11:30am 23.7 ENE 12 13 1018.6 - 0.0 - - - - - - -
26/11:00am 23.6 ENE 13 15 1019.1 - 0.0 - - - - - - -
26/10:30am 23.7 E 12 15 1019.6 - 0.0 - - - - - - -
26/10:00am 23.4 E 11 15 1019.5 - 0.0 - - - - - - -
26/09:30am 23.4 E 7 9 1019.4 - 0.0 - - - - - - -
26/09:00am 23.0 E 8 10 1019.1 - 0.0 - - - - - - -
26/08:30am 22.4 E 10 11 1018.7 - 0.0 - - - - - - -
26/08:00am 21.8 E 10 12 1018.6 - 0.0 - - - - - - -
26/07:30am 21.3 ESE 11 13 1018.2 - 0.0 - - - - - - -
26/07:00am 21.0 ESE 12 13 1017.9 - 0.0 - - - - - - -
26/06:30am 20.9 SE 12 14 1017.8 - 0.0 - - - - - - -
26/06:00am 20.8 SE 10 12 1017.4 - 0.0 - - - - - - -
26/05:30am 20.8 SSE 10 13 1017.0 - 0.0 - - - - - - -
26/05:00am 20.9 SSE 9 11 1016.9 - 0.0 - - - - - - -
26/04:30am 21.0 SSE 10 11 1016.6 - 0.0 - - - - - - -
26/04:00am 20.9 S 9 11 1016.6 - 0.0 - - - - - - -
26/03:30am 21.0 S 8 10 1016.7 - 0.0 - - - - - - -
26/03:00am 21.2 S 8 9 1016.8 - 0.0 - - - - - - -
26/02:30am 21.4 S 8 9 1016.8 - 0.0 - - - - - - -
26/02:00am 21.4 S 9 10 1017.1 - 0.0 - - - - - - -
26/01:30am 21.6 S 9 10 1017.5 - 0.0 - - - - - - -
26/01:00am 21.5 S 9 11 1017.6 - 0.0 - - - - - - -
26/12:30am 21.5 S 8 9 1017.8 - 0.0 - - - - - - -
26/12:00am 21.6 S 9 11 1017.9 - 0.0 - - - - - - -
 
Date/Time
WST
Temp
°C
Wind Pressure Rain since
9am
mm
Weather Cloud Vis
km
Sea
Height
m
Swell
Dir  Spd
kts
Gust
kts
hPa Trend Height
m
Period
s
Dir
25/11:30pm 21.3 SSW 9 10 1018.2 - 0.0 - - - - - - -
25/11:00pm 20.9 SW 7 9 1018.3 - 0.0 - - - - - - -
25/10:30pm 20.9 SW 7 7 1018.4 - 0.0 - - - - - - -
25/10:00pm 20.8 SW 6 7 1018.3 - 0.0 - - - - - - -
25/09:30pm 21.1 SSW 6 6 1018.3 - 0.0 - - - - - - -
25/09:00pm 21.3 SSW 6 6 1018.4 - 0.0 - - - - - - -
25/08:30pm 21.2 SW 5 6 1018.2 - 0.0 - - - - - - -
25/08:00pm 21.6 SSW 6 7 1017.9 - 0.0 - - - - - - -
25/07:30pm 21.4 W 5 6 1017.7 - 0.0 - - - - - - -
25/07:00pm 21.6 W 6 6 1017.5 - 0.0 - - - - - - -
25/06:30pm 22.1 WSW 3 4 1017.1 - 0.0 - - - - - - -
25/06:00pm 22.6 NNE 2 4 1016.9 - 0.0 - - - - - - -
25/05:30pm 23.0 NNE 4 5 1016.4 - 0.0 - - - - - - -
25/05:00pm 22.5 ENE 5 6 1016.1 - 0.0 - - - - - - -
25/04:30pm 22.6 NE 7 7 1016.0 - 0.0 - - - - - - -
25/04:00pm 22.5 ENE 8 9 1015.8 - 0.0 - - - - - - -
25/03:30pm 22.9 ENE 7 8 1015.9 - 0.0 - - - - - - -
25/03:00pm 23.1 ENE 7 8 1016.2 - 0.0 - - - - - - -
25/02:30pm 22.9 NE 7 8 1016.4 - 0.0 - - - - - - -
25/02:00pm 23.0 ENE 9 9 1016.6 - 0.0 - - - - - - -
25/01:30pm 22.9 ENE 7 8 1016.8 - 0.0 - - - - - - -
25/01:00pm 22.9 E 7 8 1017.2 - 0.0 - - - - - - -
25/12:30pm 23.4 E 9 10 1017.6 - 0.0 - - - - - - -
25/12:00pm 23.0 ESE 8 9 1018.2 - 0.0 - - - - - - -
25/11:30am 23.2 E 8 10 1018.7 - 0.0 - - - - - - -
25/11:00am 22.9 ESE 7 9 1019.0 - 0.0 - - - - - - -
25/10:30am 22.5 ESE 8 9 1019.2 - 0.0 - - - - - - -
25/10:00am 22.6 ESE 6 7 1019.4 - 0.0 - - - - - - -
25/09:30am 21.9 ESE 6 7 1019.2 - 0.0 - - - - - - -
25/09:00am 22.2 SE 9 11 1019.0 - 0.0 - - - - - - -
25/08:30am 21.2 ESE 13 15 1018.5 - 0.0 - - - - - - -
25/08:00am 21.0 ESE 7 9 1018.6 - 0.0 - - - - - - -
25/07:30am 20.2 SE 6 8 1018.3 - 0.0 - - - - - - -
25/07:00am 20.0 SE 6 8 1018.0 - 0.0 - - - - - - -
25/06:30am 19.8 SSE 5 5 1017.9 - 0.0 - - - - - - -
25/06:00am 19.9 S 3 5 1017.8 - 0.0 - - - - - - -
25/05:30am 20.0 S 6 8 1017.6 - 0.0 - - - - - - -
25/05:00am 20.2 S 8 10 1017.5 - 0.0 - - - - - - -
25/04:30am 20.3 SSW 7 9 1017.4 - 0.0 - - - - - - -
25/04:00am 20.6 ENE 4 5 1016.8 - 0.0 - - - - - - -
25/03:30am 20.0 E 4 6 1016.6 - 0.0 - - - - - - -
25/03:00am 20.6 E 7 8 1016.8 - 0.0 - - - - - - -
25/02:30am 20.6 ESE 9 11 1016.7 - 0.0 - - - - - - -
25/02:00am 20.5 E 9 10 1016.9 - 0.0 - - - - - - -
25/01:30am 20.6 E 9 9 1017.3 - 0.0 - - - - - - -
25/01:00am 20.6 E 8 9 1017.7 - 0.0 - - - - - - -
25/12:30am 20.6 ESE 12 13 1017.6 - 0.0 - - - - - - -
25/12:00am 20.6 SE 12 14 1017.9 - 0.0 - - - - - - -
 
Date/Time
WST
Temp
°C
Wind Pressure Rain since
9am
mm
Weather Cloud Vis
km
Sea
Height
m
Swell
Dir  Spd
kts
Gust
kts
hPa Trend Height
m
Period
s
Dir
24/11:30pm 20.7 ESE 11 13 1018.0 - 0.0 - - - - - - -
24/11:00pm 20.6 ESE 12 14 1018.0 - 0.0 - - - - - - -
24/10:30pm 20.5 SE 13 15 1018.1 - 0.0 - - - - - - -
24/10:00pm 20.4 SE 14 17 1018.2 - 0.0 - - - - - - -
24/09:30pm 20.4 SE 16 19 1018.1 - 0.0 - - - - - - -
24/09:00pm 20.5 SE 16 19 1018.1 - 0.0 - - - - - - -
24/08:30pm 20.5 SE 13 15 1018.5 - 0.0 - - - - - - -
24/08:00pm 20.5 SSE 15 18 1018.0 - 0.0 - - - - - - -
24/07:30pm 20.6 SSE 16 18 1017.6 - 0.0 - - - - - - -
24/07:00pm 20.6 SSE 15 18 1017.6 - 0.0 - - - - - - -
24/06:30pm 20.6 S 14 16 1017.3 - 0.0 - - - - - - -
24/06:00pm 20.7 S 14 16 1017.0 - 0.0 - - - - - - -

Other Formats:

Comma delimited format used in spreadsheet applications
http://www.bom.gov.au/fwo/IDW60701/IDW60701.95304.axf

JavaScript Object Notation format (JSON) in row-major order
http://www.bom.gov.au/fwo/IDW60701/IDW60701.95304.json